KCVB

Castroville Municipal Airport

Castroville, Texas, USA
METAR KCVB 252215Z AUTO 12004KT 7SM CLR 34/17 A2990 RMK AO2 T03390168
Observed Flight Rules
May-25 @ 22:15 UTC (26 minutes ago) Visual Flight Rules
Wind Visibility Clouds
120° at 4 knots 7 miles
  • Clear skies
Temperatures Readings
Current 34°C / 93°F
Dewpoint 17°C / 63°F
Humidity 36%
Altimeter 29.9" Hg
Pressure 1013 hPa
Elevation 235
METAR KCVB 252215Z AUTO 12004KT 7SM CLR 34/17 A2990 RMK AO2 T03390168
Observed Flight Rules
May-25 @ 22:15 UTC
(26 minutes ago)
VFR
Wind Visibility
120° at 4 knots 7 miles
Clouds
  • Clear skies
Temperature Dewpoint
34°C / 93°F 17°C / 63°F
Humidity Altimeter Pressure
36% 29.9" Hg 1013 hPa